עמוד ראשי
METAR-TAF:

METAR-TAF

שדות תעופה :

Ingenika Point, קולומביה הבריטית, קנדה

קו רוחב: 56-48N, קו אורך: 124-54W, גובה: 680מטר

METAR: חסר

זמן: 13:43 (20:43 UTC)

תחזית

הדו"ח נערך לפני 12 שעות ו 43דקות, בשעה 08:00 UTC
תחזית בתוקף מ 17 ב 08 UTC עד 18 ב 08 UTC
רוח 6קשר מכיוון צפון
ראות: 10קילומטר
מעט עננים בגובה 9000רגל
מעט עננים בגובה 29000רגל
מ 17 ב 2000UTC
רוח 12קשר מכיוון דרום
ראות: 10קילומטר
שמיים נקיים
מ 18 ב 0300UTC
רוח 10קשר מכיוון מערב/דרום-מערב עם משבים עד 15קשר
ראות: 10קילומטר
מעט עננים בגובה 10000רגל

TAF: CWWU 170800Z 1708/1808 01006KT P6SM FEW090 FEW290 FM172000 18012KT P6SM SKC FM180300 24010G15KT P6SM FEW100 RMK NXT FCST BY 171200Z

תצפיות ותחזיות מזג אוויר לגבי יותר מ- 4,000 שדות תעופה ברחבי העולם. דוחות METAR ו- TAF.

התחנות הזמינות מסומנות בנקודות צהובות ואדומות על גבי המפה.

העבר את העכבר לנקודה הצבעונית על מנת לראות את שם התחנה.

לאחר מכן, לחץ כדי לראות את תוכן ואת תחזיות מזג האוויר.

כדי לשנות את המפה: לחץ על הכפתורים הירוקים עם הפלוס השחור כדי להתקרב; על הכפתור הירוק עם המקף כדי להתרחק; או בחיצים הירוקים למפות סמוכות.


METAR-TAF: